sensor_id;sensor_type;location;lat;lon;timestamp;P1;durP1;ratioP1;P2;durP2;ratioP2
79616;SDS011;69097;52.132;5.422;2024-03-23T00:53:07;18.02;;;7.13;;
79616;SDS011;69097;52.132;5.422;2024-03-23T00:55:32;22.98;;;7.38;;
79616;SDS011;69097;52.132;5.422;2024-03-23T00:57:58;20.58;;;6.80;;
79616;SDS011;69097;52.132;5.422;2024-03-23T01:00:23;19.77;;;7.30;;
79616;SDS011;69097;52.132;5.422;2024-03-23T01:02:48;17.33;;;7.85;;
79616;SDS011;69097;52.132;5.422;2024-03-23T01:05:14;20.50;;;7.35;;
79616;SDS011;69097;52.132;5.422;2024-03-23T01:07:39;19.90;;;7.40;;
79616;SDS011;69097;52.132;5.422;2024-03-23T01:10:05;15.45;;;7.95;;
79616;SDS011;69097;52.132;5.422;2024-03-23T01:12:31;18.27;;;7.13;;
79616;SDS011;69097;52.132;5.422;2024-03-23T01:14:56;16.58;;;6.20;;
79616;SDS011;69097;52.132;5.422;2024-03-23T01:17:22;20.52;;;7.13;;
79616;SDS011;69097;52.132;5.422;2024-03-23T01:19:47;16.13;;;7.10;;
79616;SDS011;69097;52.132;5.422;2024-03-23T01:22:13;21.75;;;7.40;;
79616;SDS011;69097;52.132;5.422;2024-03-23T01:24:38;18.88;;;7.88;;
79616;SDS011;69097;52.132;5.422;2024-03-23T01:27:04;20.15;;;7.95;;
79616;SDS011;69097;52.132;5.422;2024-03-23T01:29:30;22.58;;;5.57;;
79616;SDS011;69097;52.132;5.422;2024-03-23T01:31:55;20.60;;;8.07;;
79616;SDS011;69097;52.132;5.422;2024-03-23T01:34:21;18.38;;;6.38;;
79616;SDS011;69097;52.132;5.422;2024-03-23T01:36:47;21.27;;;7.63;;
79616;SDS011;69097;52.132;5.422;2024-03-23T01:39:12;18.52;;;7.13;;
79616;SDS011;69097;52.132;5.422;2024-03-23T01:41:39;20.13;;;7.25;;
79616;SDS011;69097;52.132;5.422;2024-03-23T01:44:07;19.35;;;5.75;;
79616;SDS011;69097;52.132;5.422;2024-03-23T01:46:33;19.38;;;7.22;;
79616;SDS011;69097;52.132;5.422;2024-03-23T01:48:59;15.90;;;6.25;;
79616;SDS011;69097;52.132;5.422;2024-03-23T01:51:26;19.58;;;6.80;;
79616;SDS011;69097;52.132;5.422;2024-03-23T01:53:52;21.05;;;6.93;;
79616;SDS011;69097;52.132;5.422;2024-03-23T01:56:19;16.88;;;6.68;;
79616;SDS011;69097;52.132;5.422;2024-03-23T01:58:45;19.40;;;6.45;;
79616;SDS011;69097;52.132;5.422;2024-03-23T02:01:11;19.27;;;7.03;;
79616;SDS011;69097;52.132;5.422;2024-03-23T02:03:37;16.55;;;5.45;;
79616;SDS011;69097;52.132;5.422;2024-03-23T02:06:03;19.10;;;6.28;;
79616;SDS011;69097;52.132;5.422;2024-03-23T02:08:28;17.05;;;5.78;;
79616;SDS011;69097;52.132;5.422;2024-03-23T02:10:55;16.23;;;5.57;;
79616;SDS011;69097;52.132;5.422;2024-03-23T02:13:21;18.83;;;7.10;;
79616;SDS011;69097;52.132;5.422;2024-03-23T02:15:46;17.30;;;6.53;;
79616;SDS011;69097;52.132;5.422;2024-03-23T02:18:13;17.23;;;7.15;;
79616;SDS011;69097;52.132;5.422;2024-03-23T02:20:39;12.52;;;6.65;;
79616;SDS011;69097;52.132;5.422;2024-03-23T02:23:05;17.80;;;6.60;;
79616;SDS011;69097;52.132;5.422;2024-03-23T02:25:31;20.17;;;6.47;;
79616;SDS011;69097;52.132;5.422;2024-03-23T02:27:58;19.90;;;6.35;;
79616;SDS011;69097;52.132;5.422;2024-03-23T02:30:24;19.35;;;8.18;;
79616;SDS011;69097;52.132;5.422;2024-03-23T02:32:50;17.10;;;5.45;;
79616;SDS011;69097;52.132;5.422;2024-03-23T02:35:16;17.05;;;6.65;;
79616;SDS011;69097;52.132;5.422;2024-03-23T02:37:41;18.33;;;6.18;;
79616;SDS011;69097;52.132;5.422;2024-03-23T02:40:07;16.67;;;5.38;;
79616;SDS011;69097;52.132;5.422;2024-03-23T02:42:33;13.40;;;5.78;;
79616;SDS011;69097;52.132;5.422;2024-03-23T02:44:59;16.75;;;5.28;;
79616;SDS011;69097;52.132;5.422;2024-03-23T02:47:24;15.70;;;5.32;;
79616;SDS011;69097;52.132;5.422;2024-03-23T02:49:50;20.77;;;6.60;;
79616;SDS011;69097;52.132;5.422;2024-03-23T02:52:16;17.65;;;5.85;;
79616;SDS011;69097;52.132;5.422;2024-03-23T02:54:41;14.73;;;6.22;;
79616;SDS011;69097;52.132;5.422;2024-03-23T02:57:10;17.38;;;5.40;;
79616;SDS011;69097;52.132;5.422;2024-03-23T02:59:36;15.68;;;5.70;;
79616;SDS011;69097;52.132;5.422;2024-03-23T03:02:01;15.45;;;5.93;;
79616;SDS011;69097;52.132;5.422;2024-03-23T03:04:29;15.38;;;5.82;;
79616;SDS011;69097;52.132;5.422;2024-03-23T03:06:55;17.17;;;5.13;;
79616;SDS011;69097;52.132;5.422;2024-03-23T03:09:20;15.55;;;5.95;;
79616;SDS011;69097;52.132;5.422;2024-03-23T03:11:46;11.80;;;4.93;;
79616;SDS011;69097;52.132;5.422;2024-03-23T03:14:12;14.93;;;4.78;;
79616;SDS011;69097;52.132;5.422;2024-03-23T03:16:37;16.95;;;6.20;;
79616;SDS011;69097;52.132;5.422;2024-03-23T03:19:03;16.63;;;5.30;;
79616;SDS011;69097;52.132;5.422;2024-03-23T03:21:28;12.23;;;5.10;;
79616;SDS011;69097;52.132;5.422;2024-03-23T03:23:54;19.50;;;5.95;;
79616;SDS011;69097;52.132;5.422;2024-03-23T03:26:21;15.43;;;6.13;;
79616;SDS011;69097;52.132;5.422;2024-03-23T03:28:47;13.40;;;5.20;;
79616;SDS011;69097;52.132;5.422;2024-03-23T03:31:17;15.88;;;6.25;;
79616;SDS011;69097;52.132;5.422;2024-03-23T03:33:43;12.88;;;5.10;;
79616;SDS011;69097;52.132;5.422;2024-03-23T03:36:09;13.27;;;4.53;;
79616;SDS011;69097;52.132;5.422;2024-03-23T03:38:35;15.80;;;4.85;;
79616;SDS011;69097;52.132;5.422;2024-03-23T03:41:01;10.70;;;4.72;;
79616;SDS011;69097;52.132;5.422;2024-03-23T03:43:27;13.38;;;5.47;;
79616;SDS011;69097;52.132;5.422;2024-03-23T03:45:56;12.85;;;4.60;;
79616;SDS011;69097;52.132;5.422;2024-03-23T03:48:23;14.70;;;5.30;;
79616;SDS011;69097;52.132;5.422;2024-03-23T03:50:49;11.38;;;5.03;;
79616;SDS011;69097;52.132;5.422;2024-03-23T03:53:14;13.63;;;5.05;;
79616;SDS011;69097;52.132;5.422;2024-03-23T03:55:40;14.82;;;4.60;;
79616;SDS011;69097;52.132;5.422;2024-03-23T03:58:05;13.48;;;4.60;;
79616;SDS011;69097;52.132;5.422;2024-03-23T04:00:31;12.82;;;5.30;;
79616;SDS011;69097;52.132;5.422;2024-03-23T04:02:57;13.60;;;5.03;;
79616;SDS011;69097;52.132;5.422;2024-03-23T04:05:22;18.40;;;5.50;;
79616;SDS011;69097;52.132;5.422;2024-03-23T04:07:48;12.27;;;5.15;;
79616;SDS011;69097;52.132;5.422;2024-03-23T04:10:14;15.43;;;4.82;;
79616;SDS011;69097;52.132;5.422;2024-03-23T04:12:40;15.80;;;6.07;;
79616;SDS011;69097;52.132;5.422;2024-03-23T04:15:06;14.20;;;4.82;;
79616;SDS011;69097;52.132;5.422;2024-03-23T04:17:32;13.15;;;4.15;;
79616;SDS011;69097;52.132;5.422;2024-03-23T04:20:00;12.90;;;4.88;;
79616;SDS011;69097;52.132;5.422;2024-03-23T04:22:26;12.52;;;5.05;;
79616;SDS011;69097;52.132;5.422;2024-03-23T04:24:55;12.55;;;4.60;;
79616;SDS011;69097;52.132;5.422;2024-03-23T04:27:22;9.75;;;4.63;;
79616;SDS011;69097;52.132;5.422;2024-03-23T04:29:51;13.55;;;5.38;;
79616;SDS011;69097;52.132;5.422;2024-03-23T04:32:20;10.50;;;4.57;;
79616;SDS011;69097;52.132;5.422;2024-03-23T04:34:46;11.18;;;4.68;;
79616;SDS011;69097;52.132;5.422;2024-03-23T04:37:13;12.25;;;5.22;;
79616;SDS011;69097;52.132;5.422;2024-03-23T04:39:38;11.98;;;5.10;;
79616;SDS011;69097;52.132;5.422;2024-03-23T04:42:04;12.75;;;5.45;;
79616;SDS011;69097;52.132;5.422;2024-03-23T04:44:30;14.73;;;4.10;;
79616;SDS011;69097;52.132;5.422;2024-03-23T04:46:56;14.80;;;4.85;;
79616;SDS011;69097;52.132;5.422;2024-03-23T04:49:22;19.90;;;5.15;;
79616;SDS011;69097;52.132;5.422;2024-03-23T04:51:48;13.13;;;4.38;;
79616;SDS011;69097;52.132;5.422;2024-03-23T04:54:13;11.35;;;5.78;;
79616;SDS011;69097;52.132;5.422;2024-03-23T04:56:39;11.98;;;3.50;;
79616;SDS011;69097;52.132;5.422;2024-03-23T04:59:04;13.55;;;4.55;;
79616;SDS011;69097;52.132;5.422;2024-03-23T05:01:31;11.25;;;4.70;;
79616;SDS011;69097;52.132;5.422;2024-03-23T05:03:57;11.82;;;4.18;;
79616;SDS011;69097;52.132;5.422;2024-03-23T05:06:23;9.90;;;3.15;;
79616;SDS011;69097;52.132;5.422;2024-03-23T05:08:49;13.50;;;4.30;;
79616;SDS011;69097;52.132;5.422;2024-03-23T05:11:15;12.25;;;4.05;;
79616;SDS011;69097;52.132;5.422;2024-03-23T05:13:41;12.70;;;4.88;;
79616;SDS011;69097;52.132;5.422;2024-03-23T05:16:07;11.45;;;3.58;;
79616;SDS011;69097;52.132;5.422;2024-03-23T05:18:33;8.90;;;3.47;;
79616;SDS011;69097;52.132;5.422;2024-03-23T05:21:02;10.63;;;3.58;;
79616;SDS011;69097;52.132;5.422;2024-03-23T05:23:28;8.23;;;3.15;;
79616;SDS011;69097;52.132;5.422;2024-03-23T05:25:54;11.43;;;3.30;;
79616;SDS011;69097;52.132;5.422;2024-03-23T05:28:23;8.90;;;2.50;;
79616;SDS011;69097;52.132;5.422;2024-03-23T05:30:52;10.15;;;3.42;;
79616;SDS011;69097;52.132;5.422;2024-03-23T05:33:19;10.25;;;2.75;;
79616;SDS011;69097;52.132;5.422;2024-03-23T05:35:44;11.65;;;3.15;;
79616;SDS011;69097;52.132;5.422;2024-03-23T05:38:10;12.02;;;3.60;;
79616;SDS011;69097;52.132;5.422;2024-03-23T05:40:35;7.93;;;3.05;;
79616;SDS011;69097;52.132;5.422;2024-03-23T05:43:03;9.75;;;3.03;;
79616;SDS011;69097;52.132;5.422;2024-03-23T05:45:29;10.75;;;3.47;;
79616;SDS011;69097;52.132;5.422;2024-03-23T05:47:55;9.27;;;3.42;;
79616;SDS011;69097;52.132;5.422;2024-03-23T05:50:22;9.68;;;3.03;;
79616;SDS011;69097;52.132;5.422;2024-03-23T05:52:48;6.38;;;1.95;;
79616;SDS011;69097;52.132;5.422;2024-03-23T05:55:14;9.98;;;2.78;;
79616;SDS011;69097;52.132;5.422;2024-03-23T05:57:40;8.20;;;3.95;;
79616;SDS011;69097;52.132;5.422;2024-03-23T06:00:06;7.60;;;2.60;;
79616;SDS011;69097;52.132;5.422;2024-03-23T06:02:35;7.90;;;2.90;;
79616;SDS011;69097;52.132;5.422;2024-03-23T06:05:01;10.43;;;3.20;;
79616;SDS011;69097;52.132;5.422;2024-03-23T06:07:27;10.75;;;2.72;;
79616;SDS011;69097;52.132;5.422;2024-03-23T06:09:53;6.97;;;3.30;;
79616;SDS011;69097;52.132;5.422;2024-03-23T06:12:18;11.45;;;3.03;;
79616;SDS011;69097;52.132;5.422;2024-03-23T06:14:44;9.60;;;2.15;;
79616;SDS011;69097;52.132;5.422;2024-03-23T06:17:09;9.13;;;2.38;;
79616;SDS011;69097;52.132;5.422;2024-03-23T06:19:34;10.20;;;2.40;;
79616;SDS011;69097;52.132;5.422;2024-03-23T06:22:00;14.23;;;3.20;;
79616;SDS011;69097;52.132;5.422;2024-03-23T06:24:26;8.25;;;3.13;;
79616;SDS011;69097;52.132;5.422;2024-03-23T06:26:51;8.32;;;2.47;;
79616;SDS011;69097;52.132;5.422;2024-03-23T06:29:17;12.45;;;1.88;;
79616;SDS011;69097;52.132;5.422;2024-03-23T06:31:42;6.28;;;2.45;;
79616;SDS011;69097;52.132;5.422;2024-03-23T06:34:08;8.38;;;2.45;;
79616;SDS011;69097;52.132;5.422;2024-03-23T06:36:33;7.75;;;2.28;;
79616;SDS011;69097;52.132;5.422;2024-03-23T06:38:59;7.57;;;2.30;;
79616;SDS011;69097;52.132;5.422;2024-03-23T06:41:25;7.75;;;2.60;;
79616;SDS011;69097;52.132;5.422;2024-03-23T06:43:51;8.00;;;2.28;;
79616;SDS011;69097;52.132;5.422;2024-03-23T06:46:17;9.80;;;2.63;;
79616;SDS011;69097;52.132;5.422;2024-03-23T06:48:44;8.70;;;2.47;;
79616;SDS011;69097;52.132;5.422;2024-03-23T06:53:35;8.85;;;2.70;;
79616;SDS011;69097;52.132;5.422;2024-03-23T06:56:01;9.05;;;2.13;;
79616;SDS011;69097;52.132;5.422;2024-03-23T06:58:26;8.82;;;2.97;;
79616;SDS011;69097;52.132;5.422;2024-03-23T07:00:52;5.78;;;2.38;;
79616;SDS011;69097;52.132;5.422;2024-03-23T07:03:17;9.57;;;2.63;;
79616;SDS011;69097;52.132;5.422;2024-03-23T07:05:43;9.95;;;1.40;;
79616;SDS011;69097;52.132;5.422;2024-03-23T07:08:08;6.97;;;2.50;;
79616;SDS011;69097;52.132;5.422;2024-03-23T07:10:34;9.05;;;1.95;;
79616;SDS011;69097;52.132;5.422;2024-03-23T07:13:00;10.45;;;1.88;;
79616;SDS011;69097;52.132;5.422;2024-03-23T07:15:26;11.60;;;2.83;;
79616;SDS011;69097;52.132;5.422;2024-03-23T07:17:52;7.45;;;3.03;;
79616;SDS011;69097;52.132;5.422;2024-03-23T07:20:20;7.53;;;2.53;;
79616;SDS011;69097;52.132;5.422;2024-03-23T07:22:46;8.20;;;3.03;;
79616;SDS011;69097;52.132;5.422;2024-03-23T07:25:12;9.32;;;2.83;;
79616;SDS011;69097;52.132;5.422;2024-03-23T07:27:38;8.20;;;2.65;;
79616;SDS011;69097;52.132;5.422;2024-03-23T07:30:04;9.13;;;2.58;;
79616;SDS011;69097;52.132;5.422;2024-03-23T07:32:30;8.23;;;3.20;;
79616;SDS011;69097;52.132;5.422;2024-03-23T07:34:55;7.78;;;3.35;;
79616;SDS011;69097;52.132;5.422;2024-03-23T07:37:21;7.95;;;1.95;;
79616;SDS011;69097;52.132;5.422;2024-03-23T07:39:47;7.28;;;2.67;;
79616;SDS011;69097;52.132;5.422;2024-03-23T07:42:12;9.82;;;2.45;;
79616;SDS011;69097;52.132;5.422;2024-03-23T07:44:38;10.38;;;3.33;;
79616;SDS011;69097;52.132;5.422;2024-03-23T07:47:03;8.45;;;2.70;;
79616;SDS011;69097;52.132;5.422;2024-03-23T07:49:29;9.63;;;2.95;;
79616;SDS011;69097;52.132;5.422;2024-03-23T07:51:55;8.30;;;2.55;;
79616;SDS011;69097;52.132;5.422;2024-03-23T07:54:20;6.90;;;1.50;;
79616;SDS011;69097;52.132;5.422;2024-03-23T07:56:46;12.15;;;2.75;;
79616;SDS011;69097;52.132;5.422;2024-03-23T07:59:11;9.70;;;2.75;;
79616;SDS011;69097;52.132;5.422;2024-03-23T08:01:36;11.18;;;2.72;;
79616;SDS011;69097;52.132;5.422;2024-03-23T08:04:02;10.27;;;2.85;;
79616;SDS011;69097;52.132;5.422;2024-03-23T08:06:27;10.40;;;2.47;;
79616;SDS011;69097;52.132;5.422;2024-03-23T08:08:56;7.45;;;2.55;;
79616;SDS011;69097;52.132;5.422;2024-03-23T08:11:29;8.82;;;2.58;;
79616;SDS011;69097;52.132;5.422;2024-03-23T08:13:55;9.88;;;2.33;;
79616;SDS011;69097;52.132;5.422;2024-03-23T08:16:22;6.05;;;1.48;;
79616;SDS011;69097;52.132;5.422;2024-03-23T08:18:48;6.75;;;2.30;;
79616;SDS011;69097;52.132;5.422;2024-03-23T08:21:16;9.50;;;2.53;;
79616;SDS011;69097;52.132;5.422;2024-03-23T08:23:42;5.35;;;2.00;;
79616;SDS011;69097;52.132;5.422;2024-03-23T08:26:08;7.78;;;2.65;;
79616;SDS011;69097;52.132;5.422;2024-03-23T08:28:35;11.27;;;2.45;;
79616;SDS011;69097;52.132;5.422;2024-03-23T08:31:02;10.00;;;1.73;;
79616;SDS011;69097;52.132;5.422;2024-03-23T08:33:32;10.73;;;2.45;;
79616;SDS011;69097;52.132;5.422;2024-03-23T08:35:59;7.50;;;2.50;;
79616;SDS011;69097;52.132;5.422;2024-03-23T08:38:26;14.98;;;2.47;;
79616;SDS011;69097;52.132;5.422;2024-03-23T08:41:05;10.30;;;1.92;;
79616;SDS011;69097;52.132;5.422;2024-03-23T08:43:32;9.63;;;3.08;;
79616;SDS011;69097;52.132;5.422;2024-03-23T08:46:04;10.18;;;2.20;;
79616;SDS011;69097;52.132;5.422;2024-03-23T08:48:31;10.35;;;2.13;;
79616;SDS011;69097;52.132;5.422;2024-03-23T08:51:00;8.32;;;2.10;;
79616;SDS011;69097;52.132;5.422;2024-03-23T08:53:30;8.00;;;2.15;;
79616;SDS011;69097;52.132;5.422;2024-03-23T08:55:56;9.40;;;2.10;;
79616;SDS011;69097;52.132;5.422;2024-03-23T08:58:23;10.23;;;2.42;;
79616;SDS011;69097;52.132;5.422;2024-03-23T09:00:53;11.68;;;2.47;;
79616;SDS011;69097;52.132;5.422;2024-03-23T09:03:22;6.63;;;1.77;;
79616;SDS011;69097;52.132;5.422;2024-03-23T09:05:47;8.48;;;2.40;;
79616;SDS011;69097;52.132;5.422;2024-03-23T09:08:13;7.40;;;0.95;;
79616;SDS011;69097;52.132;5.422;2024-03-23T09:10:39;7.93;;;1.23;;
79616;SDS011;69097;52.132;5.422;2024-03-23T09:13:05;10.02;;;1.83;;
79616;SDS011;69097;52.132;5.422;2024-03-23T09:15:30;6.78;;;2.33;;
79616;SDS011;69097;52.132;5.422;2024-03-23T09:17:58;5.72;;;1.60;;
79616;SDS011;69097;52.132;5.422;2024-03-23T09:20:24;7.25;;;2.05;;
79616;SDS011;69097;52.132;5.422;2024-03-23T09:22:50;6.97;;;2.05;;
79616;SDS011;69097;52.132;5.422;2024-03-23T09:25:15;8.98;;;1.13;;
79616;SDS011;69097;52.132;5.422;2024-03-23T09:27:41;5.60;;;1.65;;
79616;SDS011;69097;52.132;5.422;2024-03-23T09:30:06;7.47;;;2.22;;
79616;SDS011;69097;52.132;5.422;2024-03-23T09:32:32;7.97;;;2.05;;
79616;SDS011;69097;52.132;5.422;2024-03-23T09:34:58;8.20;;;2.42;;
79616;SDS011;69097;52.132;5.422;2024-03-23T09:37:23;6.13;;;1.90;;
79616;SDS011;69097;52.132;5.422;2024-03-23T09:39:49;8.38;;;1.90;;
79616;SDS011;69097;52.132;5.422;2024-03-23T09:42:14;6.88;;;1.77;;
79616;SDS011;69097;52.132;5.422;2024-03-23T09:44:40;9.43;;;2.72;;
79616;SDS011;69097;52.132;5.422;2024-03-23T09:47:06;8.32;;;2.55;;
79616;SDS011;69097;52.132;5.422;2024-03-23T09:49:33;9.00;;;1.77;;
79616;SDS011;69097;52.132;5.422;2024-03-23T09:52:02;6.20;;;1.52;;
79616;SDS011;69097;52.132;5.422;2024-03-23T09:54:28;6.07;;;1.95;;
79616;SDS011;69097;52.132;5.422;2024-03-23T09:56:53;5.65;;;1.70;;
79616;SDS011;69097;52.132;5.422;2024-03-23T09:59:19;7.88;;;2.33;;
79616;SDS011;69097;52.132;5.422;2024-03-23T10:01:44;8.20;;;2.03;;
79616;SDS011;69097;52.132;5.422;2024-03-23T10:04:10;7.63;;;2.22;;
79616;SDS011;69097;52.132;5.422;2024-03-23T10:06:36;12.88;;;2.20;;
79616;SDS011;69097;52.132;5.422;2024-03-23T10:09:02;8.07;;;2.08;;
79616;SDS011;69097;52.132;5.422;2024-03-23T10:11:43;6.95;;;1.70;;
79616;SDS011;69097;52.132;5.422;2024-03-23T10:14:36;7.15;;;2.13;;
79616;SDS011;69097;52.132;5.422;2024-03-23T10:26:57;9.48;;;1.92;;
79616;SDS011;69097;52.132;5.422;2024-03-23T10:29:32;9.95;;;2.30;;
79616;SDS011;69097;52.132;5.422;2024-03-23T10:32:07;6.85;;;2.10;;
79616;SDS011;69097;52.132;5.422;2024-03-23T10:34:34;9.10;;;1.92;;
79616;SDS011;69097;52.132;5.422;2024-03-23T10:40:15;8.55;;;1.25;;
79616;SDS011;69097;52.132;5.422;2024-03-23T10:42:41;8.55;;;1.90;;
79616;SDS011;69097;52.132;5.422;2024-03-23T10:45:07;7.47;;;2.17;;
79616;SDS011;69097;52.132;5.422;2024-03-23T10:47:34;8.98;;;2.15;;
79616;SDS011;69097;52.132;5.422;2024-03-23T10:50:01;9.00;;;1.92;;
79616;SDS011;69097;52.132;5.422;2024-03-23T10:52:28;7.38;;;1.60;;
79616;SDS011;69097;52.132;5.422;2024-03-23T10:54:54;10.10;;;2.28;;
79616;SDS011;69097;52.132;5.422;2024-03-23T10:57:40;10.45;;;2.40;;
79616;SDS011;69097;52.132;5.422;2024-03-23T11:00:09;8.02;;;1.80;;
79616;SDS011;69097;52.132;5.422;2024-03-23T11:02:36;4.97;;;2.05;;
79616;SDS011;69097;52.132;5.422;2024-03-23T11:05:01;10.23;;;2.15;;
79616;SDS011;69097;52.132;5.422;2024-03-23T11:07:28;7.97;;;1.95;;
79616;SDS011;69097;52.132;5.422;2024-03-23T11:09:57;6.38;;;1.73;;
79616;SDS011;69097;52.132;5.422;2024-03-23T11:14:50;7.00;;;2.03;;
79616;SDS011;69097;52.132;5.422;2024-03-23T11:19:53;9.77;;;1.85;;
79616;SDS011;69097;52.132;5.422;2024-03-23T11:25:03;6.70;;;1.92;;
79616;SDS011;69097;52.132;5.422;2024-03-23T11:27:28;8.52;;;2.95;;
79616;SDS011;69097;52.132;5.422;2024-03-23T11:29:54;10.70;;;1.95;;
79616;SDS011;69097;52.132;5.422;2024-03-23T11:32:34;7.88;;;1.95;;
79616;SDS011;69097;52.132;5.422;2024-03-23T11:35:00;10.20;;;1.85;;
79616;SDS011;69097;52.132;5.422;2024-03-23T11:37:25;7.78;;;1.60;;
79616;SDS011;69097;52.132;5.422;2024-03-23T11:39:52;8.90;;;2.00;;
79616;SDS011;69097;52.132;5.422;2024-03-23T11:42:17;12.50;;;2.28;;
79616;SDS011;69097;52.132;5.422;2024-03-23T11:44:43;10.15;;;1.63;;
79616;SDS011;69097;52.132;5.422;2024-03-23T11:47:08;9.00;;;2.20;;
79616;SDS011;69097;52.132;5.422;2024-03-23T11:49:35;5.22;;;1.70;;
79616;SDS011;69097;52.132;5.422;2024-03-23T11:52:06;6.90;;;1.98;;
79616;SDS011;69097;52.132;5.422;2024-03-23T11:54:32;8.15;;;1.30;;
79616;SDS011;69097;52.132;5.422;2024-03-23T11:57:07;7.32;;;1.73;;
79616;SDS011;69097;52.132;5.422;2024-03-23T12:02:00;8.90;;;1.58;;
79616;SDS011;69097;52.132;5.422;2024-03-23T12:04:30;6.55;;;1.65;;
79616;SDS011;69097;52.132;5.422;2024-03-23T12:07:10;7.68;;;1.92;;
79616;SDS011;69097;52.132;5.422;2024-03-23T12:09:36;8.02;;;2.00;;
79616;SDS011;69097;52.132;5.422;2024-03-23T12:12:13;7.63;;;1.65;;
79616;SDS011;69097;52.132;5.422;2024-03-23T12:14:41;9.45;;;1.80;;
79616;SDS011;69097;52.132;5.422;2024-03-23T12:17:14;6.07;;;2.10;;
79616;SDS011;69097;52.132;5.422;2024-03-23T12:19:40;9.80;;;2.13;;
79616;SDS011;69097;52.132;5.422;2024-03-23T12:22:10;7.18;;;1.88;;
79616;SDS011;69097;52.132;5.422;2024-03-23T12:24:35;8.77;;;1.95;;
79616;SDS011;69097;52.132;5.422;2024-03-23T12:27:02;7.82;;;2.17;;
79616;SDS011;69097;52.132;5.422;2024-03-23T12:29:29;10.45;;;2.13;;
79616;SDS011;69097;52.132;5.422;2024-03-23T12:31:56;7.90;;;2.17;;
79616;SDS011;69097;52.132;5.422;2024-03-23T12:34:24;6.47;;;2.05;;
79616;SDS011;69097;52.132;5.422;2024-03-23T12:36:50;5.78;;;1.45;;
79616;SDS011;69097;52.132;5.422;2024-03-23T12:39:15;9.05;;;1.88;;
79616;SDS011;69097;52.132;5.422;2024-03-23T12:41:41;8.32;;;1.77;;
79616;SDS011;69097;52.132;5.422;2024-03-23T12:44:06;5.28;;;1.63;;
79616;SDS011;69097;52.132;5.422;2024-03-23T12:46:33;11.27;;;2.13;;
79616;SDS011;69097;52.132;5.422;2024-03-23T12:48:59;6.88;;;1.75;;
79616;SDS011;69097;52.132;5.422;2024-03-23T12:51:24;6.88;;;1.90;;
79616;SDS011;69097;52.132;5.422;2024-03-23T12:53:50;6.60;;;1.70;;
79616;SDS011;69097;52.132;5.422;2024-03-23T12:56:16;8.57;;;1.98;;
79616;SDS011;69097;52.132;5.422;2024-03-23T12:58:41;9.55;;;2.17;;
79616;SDS011;69097;52.132;5.422;2024-03-23T13:01:07;7.72;;;1.60;;
79616;SDS011;69097;52.132;5.422;2024-03-23T13:03:32;8.88;;;1.95;;
79616;SDS011;69097;52.132;5.422;2024-03-23T13:05:58;5.82;;;1.80;;
79616;SDS011;69097;52.132;5.422;2024-03-23T13:08:23;9.55;;;1.95;;
79616;SDS011;69097;52.132;5.422;2024-03-23T13:10:51;7.55;;;1.92;;
79616;SDS011;69097;52.132;5.422;2024-03-23T13:13:17;6.72;;;1.60;;
79616;SDS011;69097;52.132;5.422;2024-03-23T13:15:48;8.48;;;1.88;;
79616;SDS011;69097;52.132;5.422;2024-03-23T13:18:15;7.30;;;2.22;;
79616;SDS011;69097;52.132;5.422;2024-03-23T13:20:40;10.18;;;1.90;;
79616;SDS011;69097;52.132;5.422;2024-03-23T13:23:06;7.32;;;2.05;;
79616;SDS011;69097;52.132;5.422;2024-03-23T13:25:31;6.72;;;2.00;;
79616;SDS011;69097;52.132;5.422;2024-03-23T13:27:58;5.22;;;1.42;;
79616;SDS011;69097;52.132;5.422;2024-03-23T13:30:24;2.95;;;0.60;;
79616;SDS011;69097;52.132;5.422;2024-03-23T13:32:49;4.35;;;1.20;;
79616;SDS011;69097;52.132;5.422;2024-03-23T13:35:15;3.35;;;0.95;;
79616;SDS011;69097;52.132;5.422;2024-03-23T13:37:41;3.80;;;1.23;;
79616;SDS011;69097;52.132;5.422;2024-03-23T13:40:07;3.42;;;1.33;;
79616;SDS011;69097;52.132;5.422;2024-03-23T13:42:33;2.75;;;1.50;;
79616;SDS011;69097;52.132;5.422;2024-03-23T13:44:59;4.78;;;1.20;;
79616;SDS011;69097;52.132;5.422;2024-03-23T13:47:24;4.22;;;1.38;;
79616;SDS011;69097;52.132;5.422;2024-03-23T13:49:50;4.70;;;1.10;;
79616;SDS011;69097;52.132;5.422;2024-03-23T13:52:15;5.75;;;0.65;;
79616;SDS011;69097;52.132;5.422;2024-03-23T13:54:41;5.75;;;1.45;;
79616;SDS011;69097;52.132;5.422;2024-03-23T13:57:11;4.30;;;1.15;;
79616;SDS011;69097;52.132;5.422;2024-03-23T13:59:37;6.53;;;1.30;;
79616;SDS011;69097;52.132;5.422;2024-03-23T14:02:02;7.53;;;1.48;;
79616;SDS011;69097;52.132;5.422;2024-03-23T14:04:28;6.70;;;1.42;;
79616;SDS011;69097;52.132;5.422;2024-03-23T14:06:54;7.43;;;1.60;;
79616;SDS011;69097;52.132;5.422;2024-03-23T14:09:19;10.00;;;1.88;;
79616;SDS011;69097;52.132;5.422;2024-03-23T14:11:48;8.10;;;1.88;;
79616;SDS011;69097;52.132;5.422;2024-03-23T14:14:13;9.68;;;2.17;;
79616;SDS011;69097;52.132;5.422;2024-03-23T14:16:42;7.45;;;2.05;;
79616;SDS011;69097;52.132;5.422;2024-03-23T14:19:08;9.80;;;2.17;;
79616;SDS011;69097;52.132;5.422;2024-03-23T14:21:33;6.70;;;0.90;;
79616;SDS011;69097;52.132;5.422;2024-03-23T14:24:02;8.32;;;2.00;;
79616;SDS011;69097;52.132;5.422;2024-03-23T14:26:28;6.40;;;1.15;;
79616;SDS011;69097;52.132;5.422;2024-03-23T14:28:53;6.00;;;1.90;;
79616;SDS011;69097;52.132;5.422;2024-03-23T14:31:19;6.10;;;1.75;;
79616;SDS011;69097;52.132;5.422;2024-03-23T14:33:45;5.07;;;1.70;;
79616;SDS011;69097;52.132;5.422;2024-03-23T14:36:15;7.00;;;1.45;;
79616;SDS011;69097;52.132;5.422;2024-03-23T14:38:41;7.50;;;1.60;;
79616;SDS011;69097;52.132;5.422;2024-03-23T14:41:07;5.53;;;1.55;;
79616;SDS011;69097;52.132;5.422;2024-03-23T14:43:33;8.80;;;2.17;;
79616;SDS011;69097;52.132;5.422;2024-03-23T14:46:15;5.07;;;1.48;;
79616;SDS011;69097;52.132;5.422;2024-03-23T14:48:42;7.57;;;1.77;;
79616;SDS011;69097;52.132;5.422;2024-03-23T14:51:09;10.48;;;1.83;;
79616;SDS011;69097;52.132;5.422;2024-03-23T14:53:36;6.25;;;1.58;;
79616;SDS011;69097;52.132;5.422;2024-03-23T14:56:04;5.75;;;1.63;;
79616;SDS011;69097;52.132;5.422;2024-03-23T14:58:30;5.30;;;1.45;;
79616;SDS011;69097;52.132;5.422;2024-03-23T15:01:06;5.68;;;1.35;;
79616;SDS011;69097;52.132;5.422;2024-03-23T15:03:36;5.75;;;1.98;;
79616;SDS011;69097;52.132;5.422;2024-03-23T15:06:04;4.60;;;1.45;;
79616;SDS011;69097;52.132;5.422;2024-03-23T15:08:30;5.80;;;1.58;;
79616;SDS011;69097;52.132;5.422;2024-03-23T15:10:59;6.80;;;1.73;;
79616;SDS011;69097;52.132;5.422;2024-03-23T15:13:25;5.70;;;1.30;;
79616;SDS011;69097;52.132;5.422;2024-03-23T15:15:51;6.60;;;1.65;;
79616;SDS011;69097;52.132;5.422;2024-03-23T15:18:17;4.97;;;1.52;;
79616;SDS011;69097;52.132;5.422;2024-03-23T15:21:04;6.75;;;1.70;;
79616;SDS011;69097;52.132;5.422;2024-03-23T15:23:31;7.53;;;1.60;;
79616;SDS011;69097;52.132;5.422;2024-03-23T15:26:00;6.93;;;1.67;;
79616;SDS011;69097;52.132;5.422;2024-03-23T15:28:27;4.50;;;1.67;;
79616;SDS011;69097;52.132;5.422;2024-03-23T15:31:12;5.57;;;1.55;;
79616;SDS011;69097;52.132;5.422;2024-03-23T15:33:38;5.47;;;1.75;;
79616;SDS011;69097;52.132;5.422;2024-03-23T15:36:04;3.88;;;1.45;;
79616;SDS011;69097;52.132;5.422;2024-03-23T15:38:31;7.28;;;3.00;;
79616;SDS011;69097;52.132;5.422;2024-03-23T15:40:57;5.68;;;1.42;;
79616;SDS011;69097;52.132;5.422;2024-03-23T15:43:23;5.32;;;1.88;;
79616;SDS011;69097;52.132;5.422;2024-03-23T15:45:55;5.38;;;1.63;;
79616;SDS011;69097;52.132;5.422;2024-03-23T15:48:21;4.40;;;1.83;;
79616;SDS011;69097;52.132;5.422;2024-03-23T15:50:53;5.18;;;1.73;;
79616;SDS011;69097;52.132;5.422;2024-03-23T15:53:19;6.82;;;1.60;;
79616;SDS011;69097;52.132;5.422;2024-03-23T15:55:45;5.55;;;2.05;;
79616;SDS011;69097;52.132;5.422;2024-03-23T15:58:18;7.10;;;1.35;;